createdAt,value
2023-01-11T00:01:27.997Z,0.20
2023-01-11T00:03:56.400Z,0.50
2023-01-11T00:06:26.223Z,0.20
2023-01-11T00:09:00.045Z,0.33
2023-01-11T00:11:28.739Z,0.20
2023-01-11T00:13:56.983Z,0.20
2023-01-11T00:16:25.426Z,0.20
2023-01-11T00:18:53.794Z,0.30
2023-01-11T00:21:22.799Z,0.20
2023-01-11T00:23:52.482Z,0.20
2023-01-11T00:26:20.845Z,0.27
2023-01-11T00:28:49.963Z,0.30
2023-01-11T00:31:18.658Z,0.20
2023-01-11T00:33:46.938Z,0.37
2023-01-11T00:36:15.258Z,0.20
2023-01-11T00:38:47.170Z,0.20
2023-01-11T00:41:43.155Z,0.20
2023-01-11T00:44:29.523Z,0.30
2023-01-11T00:47:15.366Z,0.20
2023-01-11T00:49:43.878Z,0.20
2023-01-11T00:52:12.668Z,0.47
2023-01-11T00:54:42.757Z,0.20
2023-01-11T00:57:12.969Z,0.30
2023-01-11T00:59:41.418Z,0.20
2023-01-11T01:02:10.578Z,0.20
2023-01-11T01:04:39.530Z,0.30
2023-01-11T01:07:08.254Z,0.20
2023-01-11T01:09:36.561Z,0.30
2023-01-11T01:12:07.100Z,0.20
2023-01-11T01:14:36.464Z,1.00
2023-01-11T01:17:08.412Z,0.20
2023-01-11T01:19:39.108Z,0.20
2023-01-11T01:22:07.483Z,0.20
2023-01-11T01:24:35.969Z,0.20
2023-01-11T01:27:04.226Z,0.30
2023-01-11T01:29:32.450Z,0.30
2023-01-11T01:32:02.150Z,0.20
2023-01-11T01:34:30.528Z,0.20
2023-01-11T01:36:58.830Z,0.40
2023-01-11T01:39:28.983Z,0.20
2023-01-11T01:41:57.477Z,0.20
2023-01-11T01:44:55.208Z,0.20
2023-01-11T01:47:28.618Z,0.20
2023-01-11T01:49:58.889Z,0.20
2023-01-11T01:52:29.434Z,0.20
2023-01-11T01:55:01.951Z,0.20
2023-01-11T01:57:35.612Z,0.73
2023-01-11T02:00:08.872Z,0.20
2023-01-11T02:02:40.112Z,0.20
2023-01-11T02:05:10.245Z,0.20
2023-01-11T02:07:41.811Z,0.30
2023-01-11T02:10:12.064Z,1.13
2023-01-11T02:12:43.535Z,0.30
2023-01-11T02:15:12.935Z,0.30
2023-01-11T02:17:42.605Z,0.57
2023-01-11T02:20:21.691Z,0.20
2023-01-11T02:23:10.850Z,0.27
2023-01-11T02:26:18.959Z,0.30
2023-01-11T02:28:54.985Z,0.83
2023-01-11T02:31:32.158Z,0.33
2023-01-11T02:34:16.638Z,0.60
2023-01-11T02:37:03.189Z,1.10
2023-01-11T02:39:40.907Z,0.30
2023-01-11T02:42:32.875Z,0.80
2023-01-11T02:45:13.427Z,0.20
2023-01-11T02:47:49.653Z,0.27
2023-01-11T02:50:23.249Z,0.40
2023-01-11T02:52:58.146Z,0.20
2023-01-11T02:55:31.977Z,0.20
2023-01-11T02:58:05.022Z,0.20
2023-01-11T03:00:35.149Z,0.20
2023-01-11T03:03:13.832Z,0.20
2023-01-11T03:05:50.506Z,0.50
2023-01-11T03:08:40.822Z,0.30
2023-01-11T03:11:14.516Z,0.40
2023-01-11T03:13:55.286Z,0.83
2023-01-11T03:16:28.655Z,0.70
2023-01-11T03:19:14.793Z,1.33
2023-01-11T03:21:57.383Z,0.70
2023-01-11T03:24:34.178Z,0.40
2023-01-11T03:27:18.638Z,0.67
2023-01-11T03:29:53.532Z,0.30
2023-01-11T03:32:33.647Z,0.67
2023-01-11T03:35:18.211Z,0.40
2023-01-11T03:37:52.618Z,0.90
2023-01-11T03:40:24.629Z,0.40
2023-01-11T03:43:14.301Z,0.90
2023-01-11T03:45:48.140Z,0.40
2023-01-11T03:48:21.914Z,2.63
2023-01-11T03:50:52.872Z,0.50
2023-01-11T03:53:24.462Z,1.33
2023-01-11T03:55:57.286Z,1.07
2023-01-11T03:58:27.180Z,1.13
2023-01-11T04:00:56.984Z,0.70
2023-01-11T04:03:28.342Z,1.57
2023-01-11T04:06:00.654Z,1.87
2023-01-11T04:08:29.000Z,1.23
2023-01-11T04:10:57.455Z,1.77
2023-01-11T04:13:25.779Z,0.40
2023-01-11T04:15:54.799Z,1.07
2023-01-11T04:18:23.425Z,0.50
2023-01-11T04:20:53.177Z,0.40
2023-01-11T04:23:21.463Z,1.13
2023-01-11T04:25:49.713Z,1.40
2023-01-11T04:28:18.030Z,0.50
2023-01-11T04:30:46.236Z,1.83
2023-01-11T04:33:14.653Z,0.30
2023-01-11T04:35:44.040Z,0.93
2023-01-11T04:38:13.903Z,0.73
2023-01-11T04:40:42.250Z,0.83
2023-01-11T04:43:09.497Z,0.90
2023-01-11T04:45:40.182Z,0.40
2023-01-11T04:48:08.601Z,0.30
2023-01-11T04:50:36.878Z,0.70
2023-01-11T04:53:05.250Z,0.30
2023-01-11T04:55:34.970Z,0.53
2023-01-11T04:58:03.228Z,0.30
2023-01-11T05:00:31.499Z,0.97
2023-01-11T05:03:03.361Z,0.90
2023-01-11T05:05:31.703Z,1.93
2023-01-11T05:07:59.977Z,1.20
2023-01-11T05:10:28.253Z,1.40
2023-01-11T05:12:57.919Z,0.40
2023-01-11T05:15:26.265Z,0.20
2023-01-11T05:17:54.648Z,0.33
2023-01-11T05:20:22.958Z,0.30
2023-01-11T05:22:51.233Z,0.80
2023-01-11T05:25:19.508Z,0.70
2023-01-11T05:27:47.781Z,0.70
2023-01-11T05:30:20.024Z,1.33
2023-01-11T05:32:48.361Z,1.07
2023-01-11T05:35:16.828Z,0.80
2023-01-11T05:37:45.127Z,1.90
2023-01-11T05:40:14.084Z,1.27
2023-01-11T05:42:42.419Z,0.70
2023-01-11T05:45:30.952Z,0.40
2023-01-11T05:48:00.994Z,0.30
2023-01-11T05:50:29.343Z,0.60
2023-01-11T05:52:58.876Z,0.53
2023-01-11T05:55:27.207Z,0.63
2023-01-11T05:57:55.590Z,0.83
2023-01-11T06:00:24.802Z,1.27
2023-01-11T06:02:53.181Z,1.30
2023-01-11T06:05:22.963Z,0.97
2023-01-11T06:07:51.462Z,1.10
2023-01-11T06:10:19.836Z,0.33
2023-01-11T06:13:13.258Z,1.47
2023-01-11T06:15:41.749Z,1.10
2023-01-11T06:18:10.099Z,0.70
2023-01-11T06:20:41.242Z,0.60
2023-01-11T06:23:09.521Z,1.50
2023-01-11T06:25:38.437Z,0.70
2023-01-11T06:28:06.928Z,1.17
2023-01-11T06:30:35.354Z,0.87
2023-01-11T06:33:21.837Z,0.60
2023-01-11T06:35:52.957Z,0.53
2023-01-11T06:38:23.887Z,2.80
2023-01-11T06:40:54.469Z,1.50
2023-01-11T06:43:23.316Z,1.40
2023-01-11T06:45:52.041Z,0.50
2023-01-11T06:48:22.048Z,1.40
2023-01-11T06:50:53.205Z,1.33
2023-01-11T06:53:21.936Z,1.33
2023-01-11T06:55:52.376Z,1.87
2023-01-11T06:58:20.903Z,1.10
2023-01-11T07:00:49.297Z,1.20
2023-01-11T07:03:17.815Z,2.03
2023-01-11T07:05:46.564Z,1.73
2023-01-11T07:08:16.489Z,0.87
2023-01-11T07:10:44.970Z,1.27
2023-01-11T07:13:16.335Z,1.17
2023-01-11T07:15:45.118Z,1.50
2023-01-11T07:18:13.592Z,1.60
2023-01-11T07:20:41.977Z,2.40
2023-01-11T07:23:11.083Z,3.83
2023-01-11T07:25:41.335Z,2.80
2023-01-11T07:28:10.184Z,2.10
2023-01-11T07:31:00.618Z,3.23
2023-01-11T07:33:29.163Z,1.57
2023-01-11T07:35:58.438Z,2.47
2023-01-11T07:38:26.690Z,1.93
2023-01-11T07:40:56.484Z,2.10
2023-01-11T07:43:23.964Z,2.47
2023-01-11T07:45:53.816Z,2.93
2023-01-11T07:48:25.470Z,5.23
2023-01-11T07:50:54.399Z,3.80
2023-01-11T07:53:25.784Z,4.97
2023-01-11T07:55:56.309Z,5.20
2023-01-11T07:58:25.245Z,5.40
2023-01-11T08:00:53.721Z,2.60
2023-01-11T08:03:22.159Z,1.37
2023-01-11T08:05:52.124Z,1.40
2023-01-11T08:08:20.466Z,1.60
2023-01-11T08:11:08.836Z,2.53
2023-01-11T08:13:55.933Z,2.27
2023-01-11T08:16:24.599Z,1.37
2023-01-11T08:18:52.937Z,1.60
2023-01-11T08:21:24.469Z,2.50
2023-01-11T08:23:54.902Z,1.57
2023-01-11T08:26:24.040Z,1.67
2023-01-11T08:28:55.275Z,2.47
2023-01-11T08:31:24.732Z,0.57
2023-01-11T08:33:53.521Z,0.97
2023-01-11T08:36:21.916Z,1.03
2023-01-11T08:38:50.122Z,0.80
2023-01-11T08:41:18.417Z,1.70
2023-01-11T08:43:47.497Z,3.37
2023-01-11T08:46:18.421Z,1.60
2023-01-11T08:48:47.974Z,1.27
2023-01-11T08:51:16.386Z,0.73
2023-01-11T08:53:44.733Z,2.20
2023-01-11T08:56:13.457Z,0.77
2023-01-11T08:58:41.676Z,0.40
2023-01-11T09:01:10.061Z,0.40
2023-01-11T09:03:39.828Z,0.97
2023-01-11T09:06:08.500Z,0.50
2023-01-11T09:08:36.822Z,0.90
2023-01-11T09:11:25.236Z,0.50
2023-01-11T09:13:53.525Z,0.40
2023-01-11T09:16:21.800Z,0.90
2023-01-11T09:18:51.740Z,0.63
2023-01-11T09:21:20.082Z,0.60
2023-01-11T09:23:48.380Z,1.27
2023-01-11T09:26:16.793Z,0.80
2023-01-11T09:28:45.173Z,0.60
2023-01-11T09:31:13.774Z,0.70
2023-01-11T09:33:42.156Z,0.70
2023-01-11T09:36:12.110Z,1.00
2023-01-11T09:38:41.133Z,1.40
2023-01-11T09:41:24.398Z,0.90
2023-01-11T09:44:01.890Z,1.30
2023-01-11T09:46:31.225Z,0.87
2023-01-11T09:49:00.778Z,1.50
2023-01-11T09:51:35.233Z,1.03
2023-01-11T09:54:07.987Z,0.60
2023-01-11T09:56:45.998Z,0.90
2023-01-11T09:59:24.897Z,1.77
2023-01-11T10:02:05.528Z,2.17
2023-01-11T10:05:10.925Z,0.93
2023-01-11T10:18:33.922Z,0.60
2023-01-11T10:19:48.296Z,1.70
2023-01-11T10:22:23.539Z,0.30
2023-01-11T10:24:59.965Z,0.90
2023-01-11T10:27:35.850Z,0.53
2023-01-11T10:30:33.496Z,1.13
2023-01-11T10:33:18.453Z,0.87
2023-01-11T10:36:10.674Z,0.67
2023-01-11T10:39:03.438Z,0.30
2023-01-11T10:41:43.163Z,6.13
2023-01-11T10:44:19.495Z,6.27
2023-01-11T10:46:51.270Z,4.53
2023-01-11T10:49:41.193Z,1.50
2023-01-11T10:52:23.220Z,1.80
2023-01-11T10:54:55.994Z,0.50
2023-01-11T10:57:38.193Z,0.83
2023-01-11T11:00:35.589Z,0.57
2023-01-11T11:03:45.247Z,0.30
2023-01-11T11:06:22.597Z,0.40
2023-01-11T11:08:58.466Z,0.30
2023-01-11T11:11:35.081Z,0.40
2023-01-11T11:14:13.780Z,0.57
2023-01-11T11:16:55.093Z,0.40
2023-01-11T11:19:26.646Z,1.03
2023-01-11T11:21:54.904Z,0.90
2023-01-11T11:24:32.590Z,0.70
2023-01-11T11:27:08.480Z,0.40
2023-01-11T11:29:44.735Z,0.50
2023-01-11T11:32:22.379Z,0.80
2023-01-11T11:34:52.305Z,1.10
2023-01-11T11:37:27.932Z,0.30
2023-01-11T11:39:56.754Z,0.47
2023-01-11T11:42:25.581Z,0.70
2023-01-11T11:45:19.134Z,1.43
2023-01-11T11:48:08.142Z,1.40
2023-01-11T11:50:44.804Z,1.80
2023-01-11T11:53:25.207Z,0.60
2023-01-11T11:55:54.545Z,1.03
2023-01-11T11:58:26.446Z,0.83
2023-01-11T12:00:56.272Z,0.70
2023-01-11T12:03:30.266Z,1.00
2023-01-11T12:06:02.094Z,0.60
2023-01-11T12:08:32.851Z,1.43
2023-01-11T12:11:04.163Z,0.93
2023-01-11T12:13:35.420Z,0.97
2023-01-11T12:16:08.228Z,0.63
2023-01-11T12:18:42.603Z,0.80
2023-01-11T12:21:19.714Z,1.47
2023-01-11T12:23:48.578Z,0.40
2023-01-11T12:26:22.877Z,1.67
2023-01-11T12:29:15.750Z,1.70
2023-01-11T12:31:58.652Z,0.43
2023-01-11T12:35:06.044Z,0.60
2023-01-11T12:37:51.803Z,0.90
2023-01-11T12:40:28.672Z,1.80
2023-01-11T12:43:20.647Z,0.63
2023-01-11T12:45:56.823Z,1.07
2023-01-11T12:48:53.810Z,0.87
2023-01-11T12:51:42.869Z,2.57
2023-01-11T12:54:31.385Z,1.53
2023-01-11T12:57:12.906Z,2.30
2023-01-11T13:00:00.205Z,0.80
2023-01-11T13:02:47.882Z,0.80
2023-01-11T13:05:26.070Z,0.87
2023-01-11T13:08:06.698Z,0.40
2023-01-11T13:10:43.897Z,0.40
2023-01-11T13:13:17.356Z,0.43
2023-01-11T13:15:54.913Z,0.50
2023-01-11T13:18:31.288Z,0.30
2023-01-11T13:21:09.396Z,0.40
2023-01-11T13:23:43.551Z,0.30
2023-01-11T13:26:23.515Z,0.30
2023-01-11T13:28:56.491Z,0.50
2023-01-11T13:31:26.233Z,0.87
2023-01-11T13:33:59.148Z,0.60
2023-01-11T13:36:33.684Z,0.83
2023-01-11T13:39:06.323Z,0.53
2023-01-11T13:41:39.691Z,0.30
2023-01-11T13:44:16.451Z,0.73
2023-01-11T13:46:55.147Z,0.40
2023-01-11T13:49:38.361Z,0.30
2023-01-11T13:52:14.287Z,0.80
2023-01-11T13:54:51.785Z,0.40
2023-01-11T13:57:28.546Z,0.87
2023-01-11T14:00:05.992Z,0.80
2023-01-11T14:02:40.855Z,0.90
2023-01-11T14:05:16.131Z,0.57
2023-01-11T14:08:00.971Z,0.30
2023-01-11T14:10:44.565Z,0.80
2023-01-11T14:13:59.688Z,0.70
2023-01-11T14:16:39.522Z,0.80
2023-01-11T14:19:19.485Z,0.30
2023-01-11T14:22:02.457Z,1.40
2023-01-11T14:24:35.227Z,0.50
2023-01-11T14:27:41.850Z,0.70
2023-01-11T14:30:25.248Z,0.60
2023-01-11T14:33:32.307Z,0.60
2023-01-11T14:36:26.273Z,0.47
2023-01-11T14:39:23.864Z,0.30
2023-01-11T14:42:31.100Z,0.40
2023-01-11T14:45:17.314Z,0.93
2023-01-11T14:48:26.932Z,0.87
2023-01-11T14:51:30.712Z,0.93
2023-01-11T14:54:08.026Z,0.43
2023-01-11T14:56:52.997Z,0.30
2023-01-11T14:59:35.533Z,0.77
2023-01-11T15:02:31.023Z,1.47
2023-01-11T15:05:10.867Z,0.60
2023-01-11T15:07:43.360Z,0.40
2023-01-11T15:10:42.058Z,0.30
2023-01-11T15:13:17.406Z,0.70
2023-01-11T15:16:04.690Z,0.43
2023-01-11T15:18:33.409Z,0.30
2023-01-11T15:21:06.537Z,0.30
2023-01-11T15:23:38.303Z,2.27
2023-01-11T15:26:09.610Z,0.80
2023-01-11T15:28:50.786Z,0.33
2023-01-11T15:31:52.552Z,0.30
2023-01-11T15:34:26.572Z,1.23
2023-01-11T15:37:29.575Z,1.23
2023-01-11T15:40:02.622Z,0.20
2023-01-11T15:43:08.776Z,0.50
2023-01-11T15:46:24.296Z,0.63
2023-01-11T15:49:21.409Z,0.40
2023-01-11T15:52:18.021Z,0.83
2023-01-11T15:55:18.836Z,0.60
2023-01-11T15:58:15.986Z,0.57
2023-01-11T16:01:09.326Z,1.13
2023-01-11T16:03:58.946Z,0.60
2023-01-11T16:06:39.094Z,0.70
2023-01-11T16:09:26.079Z,1.43
2023-01-11T16:12:06.628Z,1.33
2023-01-11T16:14:53.076Z,1.47
2023-01-11T16:17:24.195Z,0.30
2023-01-11T16:19:56.797Z,0.97
2023-01-11T16:22:29.292Z,0.50
2023-01-11T16:25:05.525Z,1.13
2023-01-11T16:27:38.991Z,0.70
2023-01-11T16:30:16.442Z,0.87
2023-01-11T16:32:45.415Z,1.30
2023-01-11T16:35:26.096Z,1.57
2023-01-11T16:37:59.801Z,1.47
2023-01-11T16:40:33.419Z,1.40
2023-01-11T16:43:08.017Z,2.40
2023-01-11T16:45:42.751Z,1.17
2023-01-11T16:48:17.167Z,0.90
2023-01-11T16:51:04.039Z,0.33
2023-01-11T16:53:34.011Z,0.30
2023-01-11T16:56:07.267Z,0.30
2023-01-11T16:58:40.699Z,0.30
2023-01-11T17:01:12.055Z,0.40
2023-01-11T17:03:49.382Z,0.30
2023-01-11T17:06:22.652Z,0.37
2023-01-11T17:08:52.610Z,0.20
2023-01-11T17:11:27.096Z,0.97
2023-01-11T17:14:37.020Z,1.67
2023-01-11T17:17:10.041Z,1.40
2023-01-11T17:19:47.708Z,0.40
2023-01-11T17:22:25.234Z,0.70
2023-01-11T17:24:57.356Z,1.80
2023-01-11T17:27:31.142Z,1.57
2023-01-11T17:30:01.295Z,0.50
2023-01-11T17:32:37.263Z,0.50
2023-01-11T17:35:15.652Z,0.30
2023-01-11T17:37:46.749Z,0.30
2023-01-11T17:40:23.864Z,0.50
2023-01-11T17:43:10.700Z,0.30
2023-01-11T17:45:39.966Z,0.30
2023-01-11T17:48:14.004Z,0.30
2023-01-11T17:50:49.057Z,0.20
2023-01-11T17:53:25.923Z,0.20
2023-01-11T17:55:56.116Z,1.13
2023-01-11T17:58:27.571Z,0.30
2023-01-11T18:01:24.980Z,0.50
2023-01-11T18:03:54.693Z,0.30
2023-01-11T18:06:28.263Z,0.63
2023-01-11T18:08:59.504Z,0.83
2023-01-11T18:11:29.804Z,1.03
2023-01-11T18:14:01.149Z,2.00
2023-01-11T18:16:29.932Z,1.23
2023-01-11T18:18:58.524Z,1.80
2023-01-11T18:21:42.224Z,0.73
2023-01-11T18:24:48.089Z,1.03
2023-01-11T18:27:30.416Z,0.30
2023-01-11T18:30:06.303Z,1.50
2023-01-11T18:32:42.223Z,1.23
2023-01-11T18:35:19.013Z,0.70
2023-01-11T18:37:48.270Z,0.90
2023-01-11T18:40:19.509Z,1.53
2023-01-11T18:42:50.069Z,3.10
2023-01-11T18:45:18.824Z,1.77
2023-01-11T18:47:47.373Z,2.90
2023-01-11T18:50:18.066Z,1.10
2023-01-11T18:52:47.580Z,0.80
2023-01-11T18:55:18.016Z,1.97
2023-01-11T18:57:47.530Z,0.60
2023-01-11T19:00:18.712Z,0.43
2023-01-11T19:02:47.851Z,0.30
2023-01-11T19:05:19.354Z,0.30
2023-01-11T19:07:48.611Z,0.50
2023-01-11T19:10:20.984Z,0.30
2023-01-11T19:12:49.595Z,0.50
2023-01-11T19:15:18.170Z,0.20
2023-01-11T19:17:52.175Z,0.40
2023-01-11T19:20:21.478Z,0.40
2023-01-11T19:22:52.393Z,0.77
2023-01-11T19:25:23.030Z,0.50
2023-01-11T19:27:54.811Z,0.70
2023-01-11T19:30:35.484Z,0.43
2023-01-11T19:33:05.888Z,3.37
2023-01-11T19:35:37.261Z,2.57
2023-01-11T19:38:22.359Z,1.30
2023-01-11T19:40:52.199Z,0.87
2023-01-11T19:43:21.034Z,2.03
2023-01-11T19:46:00.394Z,1.10
2023-01-11T19:48:43.383Z,1.80
2023-01-11T19:51:14.212Z,2.00
2023-01-11T19:53:42.821Z,1.13
2023-01-11T19:56:12.583Z,0.90
2023-01-11T19:58:40.954Z,0.57
2023-01-11T20:01:13.770Z,2.10
2023-01-11T20:03:42.838Z,0.53
2023-01-11T20:06:11.439Z,0.50
2023-01-11T20:08:42.132Z,1.00
2023-01-11T20:11:14.853Z,2.27
2023-01-11T20:13:45.517Z,0.50
2023-01-11T20:16:15.189Z,1.70
2023-01-11T20:18:43.577Z,0.83
2023-01-11T20:21:13.794Z,0.60
2023-01-11T20:23:41.981Z,1.00
2023-01-11T20:26:15.638Z,0.33
2023-01-11T20:28:50.395Z,0.90
2023-01-11T20:31:22.108Z,0.57
2023-01-11T20:33:55.053Z,0.43
2023-01-11T20:36:26.838Z,1.40
2023-01-11T20:38:55.714Z,0.67
2023-01-11T20:41:44.578Z,0.60
2023-01-11T20:44:16.261Z,0.40
2023-01-11T20:46:47.735Z,0.30
2023-01-11T20:49:32.209Z,0.50
2023-01-11T20:52:00.799Z,0.47
2023-01-11T20:54:40.389Z,0.70
2023-01-11T20:57:12.715Z,0.50
2023-01-11T20:59:42.592Z,1.30
2023-01-11T21:02:13.712Z,1.00
2023-01-11T21:04:42.137Z,0.50
2023-01-11T21:07:10.877Z,2.70
2023-01-11T21:09:39.338Z,0.50
2023-01-11T21:12:09.530Z,1.53
2023-01-11T21:14:41.167Z,0.50
2023-01-11T21:17:10.945Z,0.33
2023-01-11T21:19:39.436Z,0.40
2023-01-11T21:22:07.752Z,0.30
2023-01-11T21:24:38.699Z,0.30
2023-01-11T21:27:07.054Z,0.83
2023-01-11T21:29:35.546Z,0.30
2023-01-11T21:32:03.916Z,0.50
2023-01-11T21:34:33.567Z,0.30
2023-01-11T21:37:01.847Z,0.30
2023-01-11T21:39:30.122Z,0.20
2023-01-11T21:41:59.815Z,0.93
2023-01-11T21:44:33.800Z,0.60
2023-01-11T21:47:03.771Z,0.50
2023-01-11T21:49:34.340Z,0.50
2023-01-11T21:52:02.651Z,0.43
2023-01-11T21:54:31.030Z,0.30
2023-01-11T21:56:59.305Z,0.20
2023-01-11T21:59:28.194Z,0.30
2023-01-11T22:01:56.447Z,0.50
2023-01-11T22:04:24.813Z,1.40
2023-01-11T22:06:55.898Z,1.07
2023-01-11T22:09:25.858Z,0.50
2023-01-11T22:11:54.272Z,0.30
2023-01-11T22:14:22.768Z,0.30
2023-01-11T22:16:51.294Z,0.90
2023-01-11T22:19:19.821Z,0.70
2023-01-11T22:21:48.070Z,0.40
2023-01-11T22:24:18.035Z,2.07
2023-01-11T22:26:46.372Z,0.40
2023-01-11T22:29:15.957Z,0.40
2023-01-11T22:31:47.281Z,0.83
2023-01-11T22:34:16.615Z,0.30
2023-01-11T22:36:46.046Z,0.40
2023-01-11T22:39:15.352Z,0.40
2023-01-11T22:41:46.120Z,0.30
2023-01-11T22:44:15.771Z,0.90
2023-01-11T22:46:44.804Z,0.60
2023-01-11T22:49:14.171Z,0.50
2023-01-11T22:51:43.790Z,0.53
2023-01-11T22:54:12.563Z,0.30
2023-01-11T22:56:41.375Z,0.20
2023-01-11T22:59:11.394Z,0.20
2023-01-11T23:01:41.164Z,0.30
2023-01-11T23:04:13.389Z,0.20
2023-01-11T23:06:43.396Z,0.20
2023-01-11T23:09:15.911Z,0.20
2023-01-11T23:12:02.615Z,0.20
2023-01-11T23:14:33.830Z,0.30
2023-01-11T23:17:05.261Z,0.20
2023-01-11T23:19:34.061Z,0.40
2023-01-11T23:22:02.487Z,0.20
2023-01-11T23:24:30.862Z,0.30
2023-01-11T23:26:59.346Z,0.20
2023-01-11T23:29:27.774Z,0.30
2023-01-11T23:31:57.640Z,0.30
2023-01-11T23:34:26.088Z,0.30
2023-01-11T23:36:54.377Z,0.20
2023-01-11T23:39:23.973Z,0.20
2023-01-11T23:42:09.778Z,0.20
2023-01-11T23:44:38.085Z,0.20
2023-01-11T23:47:22.067Z,1.17
2023-01-11T23:49:51.342Z,0.33
2023-01-11T23:52:21.018Z,0.40
2023-01-11T23:54:49.417Z,0.40
2023-01-11T23:57:19.334Z,0.87
2023-01-11T23:59:47.943Z,0.77
